createdAt,value
2022-09-09T00:02:22.916Z,1.60
2022-09-09T00:05:27.692Z,1.30
2022-09-09T00:08:05.259Z,1.40
2022-09-09T00:10:43.297Z,1.30
2022-09-09T00:13:31.927Z,1.02
2022-09-09T00:16:05.225Z,1.40
2022-09-09T00:19:08.460Z,1.42
2022-09-09T00:21:55.290Z,1.40
2022-09-09T00:24:31.255Z,1.30
2022-09-09T00:27:17.878Z,1.55
2022-09-09T00:30:15.288Z,1.40
2022-09-09T00:32:50.144Z,1.40
2022-09-09T00:35:26.524Z,1.48
2022-09-09T00:38:05.545Z,1.52
2022-09-09T00:40:46.301Z,1.42
2022-09-09T00:43:31.788Z,1.33
2022-09-09T00:46:19.635Z,1.25
2022-09-09T00:49:23.267Z,1.25
2022-09-09T00:51:59.631Z,1.63
2022-09-09T00:54:37.321Z,1.40
2022-09-09T00:57:24.431Z,1.63
2022-09-09T01:00:06.829Z,1.35
2022-09-09T01:03:04.290Z,1.40
2022-09-09T01:05:52.451Z,1.38
2022-09-09T01:08:43.709Z,1.63
2022-09-09T01:11:23.606Z,1.25
2022-09-09T01:14:26.910Z,1.70
2022-09-09T01:17:12.678Z,1.40
2022-09-09T01:19:48.281Z,1.13
2022-09-09T01:22:55.021Z,1.75
2022-09-09T01:25:28.753Z,1.45
2022-09-09T01:28:14.429Z,1.45
2022-09-09T01:30:47.236Z,1.48
2022-09-09T01:33:22.757Z,1.23
2022-09-09T01:36:07.708Z,1.38
2022-09-09T01:38:47.297Z,1.20
2022-09-09T01:41:21.847Z,1.30
2022-09-09T01:44:09.826Z,1.23
2022-09-09T01:46:44.299Z,1.20
2022-09-09T01:49:21.729Z,1.13
2022-09-09T01:51:57.614Z,1.20
2022-09-09T01:54:36.285Z,1.50
2022-09-09T01:57:32.869Z,1.35
2022-09-09T02:00:13.235Z,1.40
2022-09-09T02:03:04.736Z,1.60
2022-09-09T02:05:57.795Z,1.33
2022-09-09T02:08:39.805Z,1.52
2022-09-09T02:11:18.437Z,1.50
2022-09-09T02:14:17.722Z,1.50
2022-09-09T02:17:07.725Z,1.75
2022-09-09T02:20:08.458Z,1.17
2022-09-09T02:22:53.459Z,1.63
2022-09-09T02:25:31.093Z,1.83
2022-09-09T02:28:18.231Z,1.65
2022-09-09T02:30:56.628Z,1.48
2022-09-09T02:33:41.685Z,1.60
2022-09-09T02:36:18.155Z,1.50
2022-09-09T02:38:55.135Z,1.38
2022-09-09T02:41:35.650Z,1.50
2022-09-09T02:44:19.601Z,1.50
2022-09-09T02:47:19.252Z,1.50
2022-09-09T02:50:07.552Z,1.67
2022-09-09T02:52:57.005Z,1.58
2022-09-09T02:55:33.432Z,1.42
2022-09-09T02:58:10.953Z,1.63
2022-09-09T03:00:44.872Z,1.80
2022-09-09T03:03:19.757Z,1.70
2022-09-09T03:05:54.867Z,1.40
2022-09-09T03:08:29.013Z,1.48
2022-09-09T03:11:04.072Z,1.27
2022-09-09T03:13:40.092Z,1.65
2022-09-09T03:16:13.073Z,1.50
2022-09-09T03:18:50.536Z,1.30
2022-09-09T03:21:23.411Z,1.40
2022-09-09T03:23:56.927Z,2.08
2022-09-09T03:26:29.718Z,1.60
2022-09-09T03:29:02.685Z,1.65
2022-09-09T03:31:37.688Z,1.30
2022-09-09T03:34:10.521Z,1.52
2022-09-09T03:36:43.204Z,1.40
2022-09-09T03:39:16.833Z,1.50
2022-09-09T03:41:50.187Z,1.52
2022-09-09T03:44:24.562Z,1.67
2022-09-09T03:46:57.387Z,1.75
2022-09-09T03:49:30.105Z,1.70
2022-09-09T03:52:02.847Z,1.33
2022-09-09T03:54:36.878Z,1.95
2022-09-09T03:57:11.253Z,1.77
2022-09-09T03:59:44.536Z,1.40
2022-09-09T04:02:17.147Z,1.50
2022-09-09T04:04:50.181Z,1.50
2022-09-09T04:07:23.132Z,1.65
2022-09-09T04:09:56.591Z,2.15
2022-09-09T04:12:31.447Z,1.40
2022-09-09T04:15:05.076Z,1.30
2022-09-09T04:17:38.453Z,1.42
2022-09-09T04:20:12.657Z,1.30
2022-09-09T04:22:45.192Z,1.33
2022-09-09T04:25:17.821Z,1.42
2022-09-09T04:27:59.262Z,1.40
2022-09-09T04:30:33.097Z,1.70
2022-09-09T04:33:06.377Z,1.58
2022-09-09T04:35:39.917Z,1.40
2022-09-09T04:38:12.904Z,1.77
2022-09-09T04:40:48.780Z,1.60
2022-09-09T04:43:22.261Z,1.48
2022-09-09T04:45:56.036Z,1.50
2022-09-09T04:51:08.595Z,1.40
2022-09-09T04:53:41.705Z,1.50
2022-09-09T04:56:17.547Z,1.30
2022-09-09T04:58:56.707Z,1.45
2022-09-09T05:01:37.508Z,1.38
2022-09-09T05:04:11.876Z,1.30
2022-09-09T05:06:44.694Z,1.23
2022-09-09T05:09:19.382Z,1.75
2022-09-09T05:11:53.395Z,1.40
2022-09-09T05:14:33.136Z,1.67
2022-09-09T05:17:07.805Z,1.40
2022-09-09T05:22:21.833Z,1.23
2022-09-09T05:24:55.146Z,1.50
2022-09-09T05:27:28.662Z,1.33
2022-09-09T05:30:01.499Z,1.00
2022-09-09T05:32:35.352Z,1.45
2022-09-09T05:35:08.493Z,1.30
2022-09-09T05:37:41.222Z,1.63
2022-09-09T05:40:14.325Z,1.30
2022-09-09T05:42:47.047Z,1.30
2022-09-09T05:45:20.935Z,1.30
2022-09-09T05:47:55.087Z,1.40
2022-09-09T05:50:31.517Z,1.40
2022-09-09T05:53:05.097Z,1.90
2022-09-09T05:55:38.267Z,1.40
2022-09-09T05:58:11.293Z,1.63
2022-09-09T06:00:45.382Z,1.42
2022-09-09T06:03:18.359Z,1.35
2022-09-09T06:06:00.301Z,1.20
2022-09-09T06:08:35.387Z,2.28
2022-09-09T06:11:11.900Z,1.90
2022-09-09T06:13:45.241Z,2.70
2022-09-09T06:16:20.094Z,1.40
2022-09-09T06:21:31.446Z,1.88
2022-09-09T06:24:08.708Z,1.40
2022-09-09T06:26:42.397Z,1.25
2022-09-09T06:29:18.866Z,1.30
2022-09-09T06:31:52.039Z,1.30
2022-09-09T06:34:28.413Z,1.52
2022-09-09T06:39:43.510Z,1.17
2022-09-09T06:42:16.936Z,1.30
2022-09-09T06:45:00.816Z,1.67
2022-09-09T06:47:42.271Z,1.40
2022-09-09T06:50:16.212Z,2.05
2022-09-09T06:52:48.991Z,1.80
2022-09-09T06:55:22.099Z,1.45
2022-09-09T06:57:55.015Z,1.52
2022-09-09T07:00:31.532Z,1.30
2022-09-09T07:03:04.543Z,1.42
2022-09-09T07:05:37.327Z,1.92
2022-09-09T07:08:10.007Z,1.20
2022-09-09T07:10:42.906Z,1.60
2022-09-09T07:13:16.823Z,1.80
2022-09-09T07:15:49.547Z,2.00
2022-09-09T07:18:22.365Z,2.03
2022-09-09T07:20:56.476Z,1.85
2022-09-09T07:23:34.264Z,1.73
2022-09-09T07:26:11.963Z,1.95
2022-09-09T07:28:44.939Z,1.77
2022-09-09T07:31:21.794Z,2.30
2022-09-09T07:33:54.937Z,2.63
2022-09-09T07:36:33.386Z,2.55
2022-09-09T07:39:10.653Z,2.78
2022-09-09T07:41:49.562Z,2.50
2022-09-09T07:44:26.079Z,2.47
2022-09-09T07:47:11.267Z,2.28
2022-09-09T07:49:51.044Z,2.47
2022-09-09T07:52:30.550Z,3.25
2022-09-09T07:55:07.400Z,3.60
2022-09-09T07:57:41.467Z,3.33
2022-09-09T08:00:16.219Z,3.35
2022-09-09T08:02:55.517Z,3.60
2022-09-09T08:05:29.637Z,4.15
2022-09-09T08:08:04.677Z,4.72
2022-09-09T08:10:38.642Z,4.20
2022-09-09T08:13:18.309Z,4.22
2022-09-09T08:15:56.677Z,4.30
2022-09-09T08:18:29.803Z,4.82
2022-09-09T08:21:13.883Z,5.22
2022-09-09T08:23:48.771Z,4.80
2022-09-09T08:26:29.561Z,5.00
2022-09-09T08:29:03.778Z,6.38
2022-09-09T08:31:39.590Z,5.40
2022-09-09T08:34:13.509Z,5.68
2022-09-09T08:36:47.051Z,4.75
2022-09-09T08:39:22.378Z,3.80
2022-09-09T08:42:13.016Z,3.28
2022-09-09T08:45:03.653Z,4.43
2022-09-09T08:47:57.051Z,4.03
2022-09-09T08:50:36.661Z,4.80
2022-09-09T08:53:21.701Z,5.63
2022-09-09T08:56:00.986Z,4.40
2022-09-09T08:58:50.579Z,5.50
2022-09-09T09:01:46.293Z,6.63
2022-09-09T09:04:32.520Z,5.38
2022-09-09T09:07:08.640Z,5.25
2022-09-09T09:10:09.129Z,6.60
2022-09-09T09:12:48.910Z,6.78
2022-09-09T09:15:30.721Z,7.72
2022-09-09T09:18:07.126Z,7.25
2022-09-09T09:20:45.747Z,8.60
2022-09-09T09:23:25.072Z,7.88
2022-09-09T09:26:02.181Z,9.40
2022-09-09T09:28:38.514Z,9.98
2022-09-09T09:31:21.251Z,10.02
2022-09-09T09:33:58.324Z,7.53
2022-09-09T09:36:42.620Z,8.57
2022-09-09T09:42:30.747Z,7.78
2022-09-09T09:45:30.584Z,7.10
2022-09-09T09:48:14.011Z,7.53
2022-09-09T09:50:52.678Z,6.40
2022-09-09T09:53:30.055Z,6.22
2022-09-09T09:56:08.175Z,4.95
2022-09-09T09:58:54.124Z,5.85
2022-09-09T10:01:35.607Z,7.78
2022-09-09T10:04:18.150Z,8.27
2022-09-09T10:06:54.845Z,8.65
2022-09-09T10:09:34.048Z,11.10
2022-09-09T10:12:23.629Z,12.48
2022-09-09T10:15:02.848Z,12.50
2022-09-09T10:17:51.473Z,11.45
2022-09-09T10:20:33.977Z,12.30
2022-09-09T10:23:26.656Z,12.88
2022-09-09T10:26:31.159Z,10.30
2022-09-09T10:29:22.675Z,13.70
2022-09-09T10:32:19.222Z,16.63
2022-09-09T10:34:59.094Z,11.10
2022-09-09T10:37:59.499Z,10.75
2022-09-09T10:40:46.046Z,12.70
2022-09-09T10:43:42.106Z,14.05
2022-09-09T10:46:30.933Z,10.93
2022-09-09T10:49:13.998Z,10.30
2022-09-09T10:52:02.504Z,16.23
2022-09-09T10:54:41.634Z,13.45
2022-09-09T10:57:20.791Z,13.43
2022-09-09T10:59:58.779Z,12.65
2022-09-09T11:02:33.836Z,12.88
2022-09-09T11:05:11.863Z,10.38
2022-09-09T11:07:54.294Z,9.98
2022-09-09T11:10:41.292Z,10.20
2022-09-09T11:13:21.654Z,10.02
2022-09-09T11:16:01.806Z,10.15
2022-09-09T11:18:42.334Z,9.57
2022-09-09T11:21:26.320Z,8.63
2022-09-09T11:24:06.102Z,9.73
2022-09-09T11:26:51.780Z,9.10
2022-09-09T11:29:41.440Z,8.13
2022-09-09T11:32:44.955Z,7.60
2022-09-09T11:35:41.142Z,9.48
2022-09-09T11:40:59.314Z,7.50
2022-09-09T11:43:41.131Z,7.60
2022-09-09T11:46:17.105Z,7.50
2022-09-09T11:49:08.363Z,6.90
2022-09-09T11:51:41.327Z,8.20
2022-09-09T11:54:31.292Z,7.05
2022-09-09T11:57:06.094Z,6.97
2022-09-09T11:59:38.766Z,7.10
2022-09-09T12:02:24.263Z,8.10
2022-09-09T12:05:06.994Z,6.43
2022-09-09T12:07:47.625Z,6.38
2022-09-09T12:10:27.570Z,6.82
2022-09-09T12:13:18.047Z,5.03
2022-09-09T12:15:54.967Z,4.15
2022-09-09T12:18:38.204Z,4.35
2022-09-09T12:21:37.945Z,4.93
2022-09-09T12:24:16.040Z,4.60
2022-09-09T12:26:55.254Z,4.70
2022-09-09T12:29:42.867Z,4.82
2022-09-09T12:32:21.790Z,5.50
2022-09-09T12:35:02.426Z,7.57
2022-09-09T12:37:39.137Z,5.85
2022-09-09T12:40:28.507Z,4.95
2022-09-09T12:43:02.579Z,4.57
2022-09-09T12:45:37.453Z,5.28
2022-09-09T12:48:13.452Z,5.50
2022-09-09T12:50:51.278Z,4.55
2022-09-09T12:53:28.122Z,4.10
2022-09-09T12:56:11.300Z,4.70
2022-09-09T12:58:49.483Z,5.20
2022-09-09T13:01:28.306Z,5.20
2022-09-09T13:04:01.970Z,4.47
2022-09-09T13:06:35.461Z,3.75
2022-09-09T13:09:11.304Z,5.70
2022-09-09T13:11:49.359Z,4.15
2022-09-09T13:14:33.732Z,4.88
2022-09-09T13:17:08.781Z,4.80
2022-09-09T13:19:48.945Z,5.03
2022-09-09T13:22:34.415Z,3.92
2022-09-09T13:25:21.606Z,4.50
2022-09-09T13:27:55.110Z,3.70
2022-09-09T13:30:31.457Z,4.15
2022-09-09T13:33:07.869Z,4.05
2022-09-09T13:35:57.025Z,4.05
2022-09-09T13:38:32.376Z,3.92
2022-09-09T13:41:08.305Z,4.35
2022-09-09T13:43:48.667Z,4.15
2022-09-09T13:46:37.254Z,3.30
2022-09-09T13:49:10.496Z,3.65
2022-09-09T13:51:48.207Z,2.80
2022-09-09T13:54:22.234Z,3.30
2022-09-09T13:56:56.515Z,3.42
2022-09-09T13:59:53.965Z,3.00
2022-09-09T14:02:24.395Z,2.90
2022-09-09T14:07:30.480Z,3.00
2022-09-09T14:10:03.717Z,2.95
2022-09-09T14:12:37.740Z,2.88
2022-09-09T14:15:14.314Z,3.08
2022-09-09T14:17:50.064Z,3.05
2022-09-09T14:20:22.804Z,3.37
2022-09-09T14:22:55.391Z,3.10
2022-09-09T14:25:28.707Z,2.53
2022-09-09T14:28:01.676Z,3.75
2022-09-09T14:30:34.494Z,3.15
2022-09-09T14:33:08.484Z,2.90
2022-09-09T14:35:42.376Z,2.38
2022-09-09T14:38:18.940Z,2.85
2022-09-09T14:40:52.164Z,3.25
2022-09-09T14:43:24.659Z,2.58
2022-09-09T14:45:57.505Z,2.80
2022-09-09T14:48:30.940Z,2.85
2022-09-09T14:51:14.210Z,2.85
2022-09-09T14:53:47.601Z,2.75
2022-09-09T14:56:23.460Z,2.58
2022-09-09T14:58:57.491Z,2.25
2022-09-09T15:01:31.092Z,2.92
2022-09-09T15:04:06.757Z,2.95
2022-09-09T15:06:40.415Z,2.70
2022-09-09T15:09:13.535Z,2.78
2022-09-09T15:11:46.316Z,3.00
2022-09-09T15:14:22.322Z,2.65
2022-09-09T15:16:57.072Z,2.80
2022-09-09T15:19:29.807Z,3.03
2022-09-09T15:22:02.630Z,3.08
2022-09-09T15:24:35.886Z,2.67
2022-09-09T15:27:08.571Z,2.55
2022-09-09T15:29:42.396Z,2.65
2022-09-09T15:32:15.230Z,2.85
2022-09-09T15:34:48.786Z,2.63
2022-09-09T15:37:22.192Z,3.17
2022-09-09T15:39:54.871Z,3.05
2022-09-09T15:42:27.703Z,2.92
2022-09-09T15:45:00.280Z,5.07
2022-09-09T15:47:35.858Z,3.05
2022-09-09T15:50:08.998Z,3.30
2022-09-09T15:52:41.670Z,2.97
2022-09-09T15:55:14.263Z,12.80
2022-09-09T15:57:47.471Z,4.68
2022-09-09T16:00:21.003Z,2.90
2022-09-09T16:02:54.365Z,3.00
2022-09-09T16:05:27.161Z,3.30
2022-09-09T16:07:59.991Z,3.13
2022-09-09T16:10:32.579Z,3.33
2022-09-09T16:13:05.353Z,2.97
2022-09-09T16:15:37.915Z,2.90
2022-09-09T16:18:10.584Z,6.65
2022-09-09T16:20:43.216Z,2.88
2022-09-09T16:23:15.833Z,2.70
2022-09-09T16:25:57.245Z,3.00
2022-09-09T16:28:30.735Z,2.72
2022-09-09T16:31:07.639Z,3.20
2022-09-09T16:33:40.482Z,2.83
2022-09-09T16:36:16.794Z,3.45
2022-09-09T16:38:53.570Z,2.67
2022-09-09T16:41:29.030Z,3.00
2022-09-09T16:44:04.946Z,3.05
2022-09-09T16:46:41.678Z,3.33
2022-09-09T16:49:16.327Z,2.88
2022-09-09T16:51:54.569Z,2.90
2022-09-09T16:54:28.474Z,3.35
2022-09-09T16:57:01.696Z,3.50
2022-09-09T16:59:34.334Z,6.47
2022-09-09T17:02:06.951Z,3.85
2022-09-09T17:04:40.507Z,3.20
2022-09-09T17:07:13.202Z,4.30
2022-09-09T17:09:46.373Z,4.47
2022-09-09T17:12:18.990Z,3.10
2022-09-09T17:14:52.542Z,3.05
2022-09-09T17:17:32.043Z,2.70
2022-09-09T17:20:08.569Z,3.58
2022-09-09T17:22:41.409Z,3.20
2022-09-09T17:25:14.101Z,3.00
2022-09-09T17:27:46.795Z,2.95
2022-09-09T17:30:19.412Z,3.35
2022-09-09T17:32:52.003Z,2.88
2022-09-09T17:35:24.830Z,2.90
2022-09-09T17:37:57.876Z,2.78
2022-09-09T17:40:30.631Z,2.95
2022-09-09T17:43:03.550Z,2.80
2022-09-09T17:45:36.707Z,3.03
2022-09-09T17:48:09.372Z,2.70
2022-09-09T17:50:42.051Z,2.42
2022-09-09T17:53:14.717Z,2.17
2022-09-09T17:55:51.154Z,2.13
2022-09-09T17:58:25.731Z,1.98
2022-09-09T18:01:06.488Z,2.00
2022-09-09T18:03:40.893Z,1.65
2022-09-09T18:06:16.961Z,1.80
2022-09-09T18:08:53.354Z,1.40
2022-09-09T18:11:29.321Z,1.48
2022-09-09T18:14:03.774Z,1.77
2022-09-09T18:16:37.048Z,1.30
2022-09-09T18:19:13.978Z,1.23
2022-09-09T18:21:47.147Z,1.20
2022-09-09T18:24:22.246Z,1.17
2022-09-09T18:26:55.438Z,1.23
2022-09-09T18:29:28.571Z,1.50
2022-09-09T18:32:01.349Z,2.00
2022-09-09T18:34:34.026Z,1.70
2022-09-09T18:37:08.339Z,1.83
2022-09-09T18:39:41.040Z,1.60
2022-09-09T18:42:13.788Z,1.77
2022-09-09T18:44:46.405Z,1.67
2022-09-09T18:47:19.120Z,1.80
2022-09-09T18:49:52.030Z,1.75
2022-09-09T18:52:26.193Z,1.83
2022-09-09T18:54:58.736Z,2.00
2022-09-09T18:57:35.828Z,1.77
2022-09-09T19:00:10.559Z,1.90
2022-09-09T19:02:44.357Z,2.10
2022-09-09T19:05:17.049Z,2.20
2022-09-09T19:07:49.818Z,2.08
2022-09-09T19:10:22.816Z,2.40
2022-09-09T19:12:55.838Z,1.98
2022-09-09T19:15:30.127Z,1.90
2022-09-09T19:18:05.885Z,1.70
2022-09-09T19:20:39.266Z,1.63
2022-09-09T19:23:12.013Z,1.77
2022-09-09T19:25:45.778Z,1.42
2022-09-09T19:28:18.526Z,1.73
2022-09-09T19:30:51.157Z,1.83
2022-09-09T19:33:23.913Z,1.65
2022-09-09T19:36:03.291Z,1.52
2022-09-09T19:38:36.854Z,1.85
2022-09-09T19:41:12.560Z,1.60
2022-09-09T19:43:46.070Z,1.35
2022-09-09T19:46:19.370Z,1.65
2022-09-09T19:48:52.811Z,1.48
2022-09-09T19:51:27.249Z,1.30
2022-09-09T19:54:05.917Z,1.37
2022-09-09T19:56:41.620Z,1.50
2022-09-09T19:59:15.664Z,1.10
2022-09-09T20:01:48.771Z,1.30
2022-09-09T20:04:22.558Z,1.30
2022-09-09T20:06:55.183Z,1.38
2022-09-09T20:09:30.600Z,1.42
2022-09-09T20:12:03.336Z,1.48
2022-09-09T20:14:39.618Z,1.83
2022-09-09T20:17:13.168Z,1.30
2022-09-09T20:19:46.588Z,1.60
2022-09-09T20:22:19.679Z,1.80
2022-09-09T20:24:52.771Z,1.40
2022-09-09T20:27:25.872Z,1.52
2022-09-09T20:29:59.768Z,1.70
2022-09-09T20:32:32.543Z,1.40
2022-09-09T20:35:05.630Z,1.52
2022-09-09T20:37:41.183Z,1.50
2022-09-09T20:40:13.971Z,1.30
2022-09-09T20:42:46.581Z,1.50
2022-09-09T20:45:19.399Z,1.65
2022-09-09T20:47:52.108Z,1.75
2022-09-09T20:50:25.184Z,1.70
2022-09-09T20:52:58.441Z,1.50
2022-09-09T20:55:32.696Z,1.23
2022-09-09T20:58:07.390Z,1.42
2022-09-09T21:00:39.936Z,1.40
2022-09-09T21:03:12.409Z,1.85
2022-09-09T21:05:45.015Z,1.40
2022-09-09T21:08:17.615Z,1.40
2022-09-09T21:10:51.691Z,1.63
2022-09-09T21:13:25.476Z,1.33
2022-09-09T21:15:59.463Z,1.45
2022-09-09T21:18:32.636Z,1.70
2022-09-09T21:21:05.944Z,1.52
2022-09-09T21:23:38.734Z,1.48
2022-09-09T21:26:11.530Z,1.90
2022-09-09T21:28:44.318Z,1.52
2022-09-09T21:31:18.891Z,1.40
2022-09-09T21:33:51.787Z,1.90
2022-09-09T21:36:25.776Z,1.80
2022-09-09T21:38:59.396Z,1.63
2022-09-09T21:41:32.064Z,1.77
2022-09-09T21:44:04.928Z,1.50
2022-09-09T21:46:37.763Z,1.80
2022-09-09T21:49:11.394Z,1.73
2022-09-09T21:51:43.992Z,1.50
2022-09-09T21:54:19.055Z,1.60
2022-09-09T21:56:52.600Z,1.35
2022-09-09T21:59:28.108Z,1.67
2022-09-09T22:02:01.243Z,1.73
2022-09-09T22:04:36.222Z,1.70
2022-09-09T22:07:09.655Z,1.90
2022-09-09T22:09:42.259Z,1.70
2022-09-09T22:12:14.747Z,1.67
2022-09-09T22:14:47.627Z,1.58
2022-09-09T22:17:24.670Z,1.70
2022-09-09T22:19:57.596Z,1.65
2022-09-09T22:22:30.239Z,1.63
2022-09-09T22:25:02.992Z,1.70
2022-09-09T22:27:35.751Z,1.80
2022-09-09T22:30:10.156Z,1.65
2022-09-09T22:32:43.136Z,1.60
2022-09-09T22:35:15.975Z,1.50
2022-09-09T22:37:48.622Z,1.63
2022-09-09T22:40:21.209Z,1.55
2022-09-09T22:42:54.323Z,1.67
2022-09-09T22:45:27.572Z,1.88
2022-09-09T22:48:01.441Z,2.30
2022-09-09T22:50:38.928Z,2.05
2022-09-09T22:53:17.228Z,2.22
2022-09-09T22:55:59.616Z,2.33
2022-09-09T22:58:35.863Z,1.65
2022-09-09T23:01:15.531Z,2.13
2022-09-09T23:03:50.747Z,2.08
2022-09-09T23:06:25.634Z,2.80
2022-09-09T23:09:01.303Z,2.95
2022-09-09T23:11:37.173Z,3.10
2022-09-09T23:14:11.745Z,3.97
2022-09-09T23:16:47.124Z,3.20
2022-09-09T23:21:54.924Z,7.03
2022-09-09T23:24:28.126Z,7.57
2022-09-09T23:27:00.897Z,8.45
2022-09-09T23:29:33.741Z,8.70
2022-09-09T23:32:06.618Z,9.27
2022-09-09T23:34:40.364Z,10.35
2022-09-09T23:37:13.443Z,8.07
2022-09-09T23:39:46.163Z,10.00
2022-09-09T23:42:19.074Z,10.30
2022-09-09T23:44:52.389Z,10.93
2022-09-09T23:47:25.640Z,11.00
2022-09-09T23:49:58.854Z,10.90
2022-09-09T23:52:31.851Z,11.40
2022-09-09T23:55:05.883Z,11.88
2022-09-09T23:57:39.562Z,11.18
